Time;durP1;ratioP1;P1;durP2;ratioP2;P2;SDS_P1;SDS_P2;PMS_P1;PMS_P2;Temp;Humidity;BMP_temperature;BMP_pressure;BME280_temperature;BME280_humidity;BME280_pressure;Samples;Min_cycle;Max_cycle;Signal;HPM_P1;HPM_P2
2023/07/20 00:00:53;;;;;;;3.17;2.37;;;14.80;99.90;;;;;;4995595;28;20475;-60
2023/07/20 00:03:23;;;;;;;1.80;1.70;;;14.70;99.90;;;;;;5000526;28;20563;-59
2023/07/20 00:05:51;;;;;;;2.50;2.30;;;14.70;99.90;;;;;;4996885;28;20558;-59
2023/07/20 00:08:19;;;;;;;2.30;2.20;;;14.70;99.90;;;;;;4997723;28;20468;-58
2023/07/20 00:10:47;;;;;;;3.77;2.87;;;14.70;99.90;;;;;;4998157;28;20559;-58
2023/07/20 00:13:18;;;;;;;2.73;2.47;;;14.70;99.90;;;;;;4999727;28;20474;-60
2023/07/20 00:15:46;;;;;;;2.50;2.30;;;14.70;99.90;;;;;;4998140;28;20481;-59
2023/07/20 00:18:14;;;;;;;3.77;2.40;;;14.80;99.90;;;;;;4999832;28;21068;-59
2023/07/20 00:20:42;;;;;;;2.50;2.30;;;14.80;99.90;;;;;;5000049;28;20468;-59
2023/07/20 00:23:10;;;;;;;2.30;2.10;;;14.80;99.90;;;;;;4996549;28;20595;-59
2023/07/20 00:25:39;;;;;;;3.10;2.00;;;14.90;99.90;;;;;;4997598;28;20572;-59
2023/07/20 00:28:07;;;;;;;2.20;2.10;;;14.80;99.90;;;;;;5001261;28;20552;-58
2023/07/20 00:30:36;;;;;;;3.20;2.23;;;14.80;99.90;;;;;;5001156;28;20506;-59
2023/07/20 00:33:04;;;;;;;2.23;2.03;;;14.90;99.90;;;;;;5000858;28;20507;-59
2023/07/20 00:35:33;;;;;;;2.37;2.17;;;14.90;99.90;;;;;;5000791;28;20518;-58
2023/07/20 00:38:00;;;;;;;3.13;2.23;;;14.90;99.90;;;;;;4998428;28;20473;-60
2023/07/20 00:40:28;;;;;;;3.13;2.30;;;14.90;99.90;;;;;;4996168;28;20518;-57
2023/07/20 00:42:56;;;;;;;2.93;2.70;;;14.90;99.90;;;;;;4996304;28;20575;-58
2023/07/20 00:45:26;;;;;;;2.47;2.33;;;14.90;99.90;;;;;;4993557;28;20520;-58
2023/07/20 00:47:56;;;;;;;2.63;2.43;;;14.90;99.90;;;;;;4995149;28;21074;-59
2023/07/20 00:50:24;;;;;;;2.73;2.50;;;15.00;99.90;;;;;;4997364;28;20831;-58
2023/07/20 00:52:53;;;;;;;2.70;2.50;;;15.00;99.90;;;;;;4997783;28;20501;-59
2023/07/20 00:55:21;;;;;;;3.20;2.97;;;15.00;99.90;;;;;;4998563;28;20981;-59
2023/07/20 00:57:49;;;;;;;2.63;2.43;;;14.90;99.90;;;;;;4995330;28;20941;-58
2023/07/20 01:00:18;;;;;;;2.80;2.60;;;14.90;99.90;;;;;;4996521;28;21222;-59
2023/07/20 01:02:46;;;;;;;2.90;2.70;;;14.90;99.90;;;;;;4997173;28;21198;-58
2023/07/20 01:05:17;;;;;;;3.20;3.00;;;14.80;99.90;;;;;;4998149;28;21046;-58
2023/07/20 01:07:53;;;;;;;3.20;2.90;;;14.90;99.90;;;;;;4999525;28;20611;-59
2023/07/20 01:10:28;;;;;;;3.13;2.83;;;14.80;99.90;;;;;;4995500;28;20546;-57
2023/07/20 01:12:57;;;;;;;3.30;3.00;;;14.80;99.90;;;;;;4997639;28;20583;-58
2023/07/20 01:15:25;;;;;;;3.37;3.07;;;14.80;99.90;;;;;;5001775;28;20551;-58
2023/07/20 01:17:53;;;;;;;3.17;2.93;;;14.80;99.90;;;;;;4997974;28;20469;-59
2023/07/20 01:20:24;;;;;;;3.50;3.20;;;14.80;99.90;;;;;;5002143;28;20468;-59
2023/07/20 01:23:12;;;;;;;3.00;2.80;;;14.80;99.90;;;;;;4998350;28;20489;-60
2023/07/20 01:26:01;;;;;;;3.40;3.20;;;14.80;99.90;;;;;;5002043;28;20492;-58
2023/07/20 01:28:57;;;;;;;3.33;3.10;;;14.80;99.90;;;;;;4997733;28;20583;-58
2023/07/20 01:31:30;;;;;;;4.43;3.40;;;14.80;99.90;;;;;;4998743;28;20488;-60
2023/07/20 01:34:01;;;;;;;3.93;3.60;;;14.80;99.90;;;;;;5000586;28;20531;-58
2023/07/20 01:36:32;;;;;;;4.00;3.70;;;14.80;99.90;;;;;;5000857;28;20559;-58
2023/07/20 01:39:00;;;;;;;3.80;3.50;;;14.70;99.90;;;;;;4996813;28;20943;-58
2023/07/20 01:41:28;;;;;;;3.80;3.50;;;14.70;99.90;;;;;;4997292;28;20483;-60
2023/07/20 01:43:59;;;;;;;3.60;3.30;;;14.70;99.90;;;;;;4996928;28;20488;-57
2023/07/20 01:46:28;;;;;;;3.80;3.50;;;14.70;99.90;;;;;;4995620;28;20861;-58
2023/07/20 01:48:57;;;;;;;4.70;3.60;;;14.70;99.90;;;;;;4997339;28;20567;-59
2023/07/20 01:51:25;;;;;;;4.13;3.77;;;14.80;99.90;;;;;;4996803;28;20476;-59
2023/07/20 01:53:52;;;;;;;4.40;3.60;;;14.80;99.90;;;;;;4997672;28;20520;-59
2023/07/20 01:56:20;;;;;;;4.30;3.67;;;14.80;99.90;;;;;;4995860;28;20477;-60
2023/07/20 01:58:49;;;;;;;3.77;3.47;;;14.80;99.90;;;;;;4992781;28;20500;-58
2023/07/20 02:01:17;;;;;;;3.50;3.20;;;14.80;99.90;;;;;;4996820;28;20477;-59
2023/07/20 02:03:46;;;;;;;3.63;3.33;;;14.80;99.90;;;;;;4995691;28;20477;-59
2023/07/20 02:06:15;;;;;;;5.00;3.90;;;14.80;99.90;;;;;;4994944;28;20509;-58
2023/07/20 02:08:43;;;;;;;3.60;3.30;;;14.80;99.90;;;;;;4996843;28;20488;-60
2023/07/20 02:11:10;;;;;;;3.67;3.27;;;14.80;99.90;;;;;;4998421;28;20476;-58
2023/07/20 02:13:38;;;;;;;3.77;3.53;;;14.80;99.90;;;;;;4996145;28;20479;-61
2023/07/20 02:16:06;;;;;;;4.10;3.80;;;14.70;99.90;;;;;;4995595;28;20584;-60
2023/07/20 02:18:35;;;;;;;3.83;3.53;;;14.70;99.90;;;;;;4995705;28;20476;-60
2023/07/20 02:21:04;;;;;;;3.53;3.23;;;14.70;99.90;;;;;;4997222;28;20890;-59
2023/07/20 02:23:32;;;;;;;4.37;3.97;;;14.70;99.90;;;;;;4995238;28;20468;-58
2023/07/20 02:26:00;;;;;;;4.50;4.10;;;14.70;99.90;;;;;;4993419;28;20480;-59
2023/07/20 02:28:28;;;;;;;4.23;3.93;;;14.60;99.90;;;;;;4993793;28;21022;-59
2023/07/20 02:30:56;;;;;;;4.13;3.87;;;14.60;99.90;;;;;;4993725;28;20480;-58
2023/07/20 02:33:24;;;;;;;3.80;3.50;;;14.60;99.90;;;;;;4991429;28;21585;-58
2023/07/20 02:35:52;;;;;;;4.23;3.93;;;14.70;99.90;;;;;;4992052;28;20619;-61
2023/07/20 02:38:22;;;;;;;4.00;3.60;;;14.60;99.90;;;;;;4991333;28;20469;-59
2023/07/20 02:40:50;;;;;;;3.90;3.60;;;14.60;99.90;;;;;;4994793;28;20563;-59
2023/07/20 02:43:18;;;;;;;3.30;3.00;;;14.60;99.90;;;;;;4992828;28;20484;-60
2023/07/20 02:45:46;;;;;;;3.60;3.33;;;14.70;99.90;;;;;;4988314;28;20572;-58
2023/07/20 02:48:14;;;;;;;3.47;3.17;;;14.70;99.90;;;;;;4995660;28;20584;-60
2023/07/20 02:50:43;;;;;;;3.43;2.97;;;14.60;99.90;;;;;;4991765;28;20851;-59
2023/07/20 02:53:11;;;;;;;3.20;3.00;;;14.60;99.90;;;;;;4990392;28;20623;-59
2023/07/20 02:55:40;;;;;;;4.07;3.77;;;14.60;99.90;;;;;;4995397;28;20986;-58
2023/07/20 02:58:08;;;;;;;3.40;3.20;;;14.60;99.90;;;;;;4992588;28;20881;-59
2023/07/20 03:00:36;;;;;;;3.07;2.87;;;14.60;99.90;;;;;;4995991;28;20507;-58
2023/07/20 03:03:04;;;;;;;3.47;3.27;;;14.70;99.90;;;;;;4995239;28;20779;-59
2023/07/20 03:05:32;;;;;;;3.50;3.20;;;14.70;99.90;;;;;;4994107;28;22365;-58
2023/07/20 03:08:02;;;;;;;4.53;3.23;;;14.70;99.90;;;;;;4992768;28;20586;-59
2023/07/20 03:10:30;;;;;;;4.00;3.40;;;14.60;99.90;;;;;;4997402;28;20670;-59
2023/07/20 03:12:59;;;;;;;4.00;3.60;;;14.60;99.90;;;;;;4999830;28;20488;-57
2023/07/20 03:15:29;;;;;;;3.87;3.57;;;14.60;99.90;;;;;;5002156;28;20591;-59
2023/07/20 03:17:58;;;;;;;4.00;3.70;;;14.50;99.90;;;;;;4999064;28;20469;-59
2023/07/20 03:20:26;;;;;;;4.70;4.30;;;14.50;99.90;;;;;;4998420;28;20469;-57
2023/07/20 03:22:54;;;;;;;3.97;3.50;;;14.50;99.90;;;;;;4997577;28;20488;-58
2023/07/20 03:25:22;;;;;;;4.10;3.80;;;14.50;99.90;;;;;;5000448;28;21063;-59
2023/07/20 03:27:53;;;;;;;4.00;3.70;;;14.40;99.90;;;;;;4997717;28;20496;-58
2023/07/20 03:30:23;;;;;;;4.10;3.80;;;14.40;99.90;;;;;;5000224;28;20479;-58
2023/07/20 03:32:51;;;;;;;4.33;3.40;;;14.30;99.90;;;;;;5002591;28;20473;-58
2023/07/20 03:35:19;;;;;;;4.20;3.60;;;14.30;99.90;;;;;;5001958;28;20537;-58
2023/07/20 03:37:47;;;;;;;2.90;2.70;;;14.30;99.90;;;;;;4999816;28;20481;-58
2023/07/20 03:40:15;;;;;;;3.17;2.97;;;14.30;99.90;;;;;;5000570;28;20542;-58
2023/07/20 03:42:43;;;;;;;3.43;3.20;;;14.40;99.90;;;;;;5000654;28;20925;-59
2023/07/20 03:45:11;;;;;;;3.30;3.00;;;14.40;99.90;;;;;;5003346;28;20578;-58
2023/07/20 03:47:41;;;;;;;3.23;3.03;;;14.30;99.90;;;;;;5003340;28;20587;-59
2023/07/20 03:50:10;;;;;;;3.23;3.03;;;14.30;99.90;;;;;;5000447;28;20476;-58
2023/07/20 03:52:38;;;;;;;3.70;3.40;;;14.30;99.90;;;;;;5002215;28;20476;-59
2023/07/20 03:55:07;;;;;;;3.70;3.40;;;14.30;99.90;;;;;;5000761;28;20492;-58
2023/07/20 03:57:35;;;;;;;3.57;3.03;;;14.40;99.90;;;;;;4999900;28;20473;-58
2023/07/20 04:00:06;;;;;;;3.00;2.80;;;14.50;99.90;;;;;;5001637;28;20480;-58
2023/07/20 04:02:34;;;;;;;3.63;3.40;;;14.50;99.90;;;;;;5001557;28;20580;-59
2023/07/20 04:05:04;;;;;;;3.53;3.30;;;14.50;99.90;;;;;;5001032;28;20544;-59
2023/07/20 04:07:32;;;;;;;3.67;3.37;;;14.50;99.90;;;;;;5000384;28;20564;-58
2023/07/20 04:10:00;;;;;;;4.00;3.33;;;14.50;99.90;;;;;;4999292;28;20475;-58
2023/07/20 04:12:28;;;;;;;3.90;3.60;;;14.50;99.90;;;;;;4996662;28;20482;-59
2023/07/20 04:14:56;;;;;;;3.47;3.17;;;14.50;99.90;;;;;;4997947;28;20500;-58
2023/07/20 04:17:24;;;;;;;3.73;3.43;;;14.50;99.90;;;;;;4999219;28;20483;-59
2023/07/20 04:19:52;;;;;;;3.43;3.13;;;14.50;99.90;;;;;;4996921;28;20911;-58
2023/07/20 04:22:21;;;;;;;3.73;3.43;;;14.50;99.90;;;;;;4994235;28;20494;-59
2023/07/20 04:24:49;;;;;;;3.37;3.17;;;14.50;99.90;;;;;;4997669;28;20500;-59
2023/07/20 04:27:17;;;;;;;3.63;3.33;;;14.50;99.90;;;;;;4998038;28;20480;-59
2023/07/20 04:29:45;;;;;;;3.13;2.93;;;14.50;99.90;;;;;;4994381;28;20504;-57
2023/07/20 04:32:13;;;;;;;3.70;3.40;;;14.50;99.90;;;;;;4990321;28;20575;-58
2023/07/20 04:34:42;;;;;;;4.17;3.87;;;14.50;99.90;;;;;;4991117;28;20488;-58
2023/07/20 04:37:10;;;;;;;3.73;3.47;;;14.50;99.90;;;;;;4995193;28;20534;-58
2023/07/20 04:39:39;;;;;;;3.90;3.60;;;14.50;99.90;;;;;;4997332;28;20466;-58
2023/07/20 04:42:07;;;;;;;3.97;3.27;;;14.60;99.90;;;;;;4993783;28;20515;-58
2023/07/20 04:44:35;;;;;;;3.27;3.07;;;14.70;99.90;;;;;;4994736;28;20489;-61
2023/07/20 04:47:04;;;;;;;2.73;2.60;;;14.70;99.90;;;;;;4994693;28;20558;-60
2023/07/20 04:49:32;;;;;;;3.70;3.40;;;14.70;99.90;;;;;;4993153;28;21359;-61
2023/07/20 04:52:00;;;;;;;2.90;2.70;;;14.70;99.90;;;;;;4986648;28;20591;-59
2023/07/20 04:54:28;;;;;;;3.10;2.90;;;14.70;99.90;;;;;;4994202;28;20516;-57
2023/07/20 04:56:57;;;;;;;2.87;2.60;;;14.70;99.90;;;;;;4995068;28;20479;-59
2023/07/20 04:59:25;;;;;;;2.90;2.47;;;14.70;99.90;;;;;;4996650;28;20491;-59
2023/07/20 05:01:53;;;;;;;2.83;2.63;;;14.70;99.90;;;;;;4996001;28;20524;-57
2023/07/20 05:04:21;;;;;;;3.00;2.80;;;14.80;99.90;;;;;;4993314;28;20496;-58
2023/07/20 05:06:49;;;;;;;2.47;2.27;;;14.80;99.90;;;;;;4988054;28;20475;-59
2023/07/20 05:09:17;;;;;;;2.97;2.67;;;14.90;99.90;;;;;;4998198;28;20579;-58
2023/07/20 05:11:47;;;;;;;2.60;2.50;;;14.90;99.90;;;;;;4993794;28;20604;-58
2023/07/20 05:14:17;;;;;;;3.10;2.80;;;15.00;99.90;;;;;;4988892;28;21270;-59
2023/07/20 05:16:44;;;;;;;2.77;2.60;;;15.00;99.90;;;;;;4991577;28;20472;-59
2023/07/20 05:19:12;;;;;;;3.10;2.90;;;15.00;99.90;;;;;;4989146;28;20538;-59
2023/07/20 05:21:40;;;;;;;3.30;3.10;;;15.10;99.90;;;;;;4998611;28;20587;-59
2023/07/20 05:24:09;;;;;;;3.40;3.20;;;15.10;99.90;;;;;;4994496;28;21196;-59
2023/07/20 05:26:37;;;;;;;3.00;2.80;;;15.10;99.90;;;;;;4996759;28;20473;-59
2023/07/20 05:29:05;;;;;;;3.03;2.73;;;15.10;99.90;;;;;;4995751;28;20493;-58
2023/07/20 05:31:35;;;;;;;3.60;3.30;;;15.10;99.90;;;;;;4995005;28;24093;-59
2023/07/20 05:34:03;;;;;;;4.07;3.67;;;15.20;99.90;;;;;;5000046;28;20496;-59
2023/07/20 05:36:31;;;;;;;5.50;3.40;;;15.20;99.90;;;;;;4988856;28;20534;-59
2023/07/20 05:38:59;;;;;;;4.43;3.33;;;15.20;99.90;;;;;;4995502;28;20717;-61
2023/07/20 05:41:27;;;;;;;4.20;3.30;;;15.30;99.90;;;;;;4997802;28;20497;-58
2023/07/20 05:43:55;;;;;;;2.87;2.67;;;15.30;99.90;;;;;;4997570;28;20567;-59
2023/07/20 05:46:24;;;;;;;3.00;2.70;;;15.30;99.90;;;;;;4995839;28;20474;-58
2023/07/20 05:48:55;;;;;;;3.50;3.20;;;15.30;99.90;;;;;;4993661;28;20519;-58
2023/07/20 05:51:23;;;;;;;3.43;3.23;;;15.30;99.90;;;;;;4996381;28;20592;-57
2023/07/20 05:53:51;;;;;;;3.27;2.97;;;15.40;99.90;;;;;;4995117;28;20561;-60
2023/07/20 05:56:19;;;;;;;3.07;2.83;;;15.40;99.90;;;;;;4996266;28;20560;-58
2023/07/20 05:58:47;;;;;;;3.63;2.83;;;15.40;99.90;;;;;;4994948;28;21259;-59
2023/07/20 06:01:15;;;;;;;2.80;2.60;;;15.40;99.90;;;;;;4995572;28;20512;-57
2023/07/20 06:03:43;;;;;;;2.43;2.23;;;15.50;99.90;;;;;;4992461;28;20496;-59
2023/07/20 06:06:13;;;;;;;2.80;2.60;;;15.50;99.90;;;;;;4997508;28;20473;-58
2023/07/20 06:08:41;;;;;;;2.70;2.50;;;15.60;99.90;;;;;;4996095;28;20472;-60
2023/07/20 06:11:09;;;;;;;2.53;2.33;;;15.60;99.90;;;;;;4995098;28;20898;-58
2023/07/20 06:13:37;;;;;;;2.43;2.23;;;15.60;99.90;;;;;;4992850;28;20476;-58
2023/07/20 06:16:05;;;;;;;3.13;2.53;;;15.70;99.90;;;;;;4991068;28;20496;-59
2023/07/20 06:18:33;;;;;;;2.27;2.07;;;15.80;99.90;;;;;;4994449;28;20475;-57
2023/07/20 06:21:01;;;;;;;2.90;2.07;;;15.80;99.90;;;;;;4997187;28;20529;-58
2023/07/20 06:23:30;;;;;;;2.10;2.00;;;15.90;99.90;;;;;;4996400;28;20515;-58
2023/07/20 06:25:58;;;;;;;2.33;2.10;;;16.00;99.90;;;;;;4999777;28;20572;-57
2023/07/20 06:28:26;;;;;;;2.83;2.50;;;16.10;99.90;;;;;;4998065;28;20508;-59
2023/07/20 06:31:00;;;;;;;2.00;1.90;;;16.00;99.90;;;;;;4995225;28;20502;-57
2023/07/20 06:33:28;;;;;;;1.73;1.43;;;16.10;99.90;;;;;;4998630;28;20475;-58
2023/07/20 06:35:57;;;;;;;1.90;1.80;;;16.10;99.90;;;;;;5000436;28;20472;-59
2023/07/20 06:38:26;;;;;;;2.20;2.00;;;16.20;99.90;;;;;;4994855;28;20475;-57
2023/07/20 06:40:58;;;;;;;2.53;2.00;;;16.20;99.90;;;;;;4995655;28;20483;-58
2023/07/20 06:43:46;;;;;;;3.40;1.90;;;16.30;99.90;;;;;;4998534;28;20485;-59
2023/07/20 06:46:16;;;;;;;2.53;1.70;;;16.30;99.90;;;;;;4999995;28;20962;-60
2023/07/20 06:48:44;;;;;;;4.13;3.30;;;16.20;99.90;;;;;;5003815;28;20460;-61
2023/07/20 06:51:15;;;;;;;2.20;2.10;;;16.20;99.90;;;;;;4999720;28;20481;-61
2023/07/20 06:53:43;;;;;;;3.10;1.83;;;16.30;99.90;;;;;;5002354;28;20483;-58
2023/07/20 06:56:12;;;;;;;2.73;1.80;;;16.30;99.90;;;;;;4999154;28;20472;-59
2023/07/20 06:58:40;;;;;;;4.03;1.87;;;16.30;99.90;;;;;;5002257;28;20486;-57
2023/07/20 07:01:08;;;;;;;1.90;1.70;;;16.40;99.90;;;;;;4994473;28;20555;-58
2023/07/20 07:03:37;;;;;;;3.43;1.90;;;16.40;99.90;;;;;;5001294;28;20850;-59
2023/07/20 07:06:05;;;;;;;4.30;2.13;;;16.30;99.90;;;;;;5000293;28;21052;-59
2023/07/20 07:08:33;;;;;;;2.13;2.03;;;16.30;99.90;;;;;;5001988;28;20469;-59
2023/07/20 07:11:01;;;;;;;2.20;1.83;;;16.30;99.90;;;;;;4999665;28;20583;-59
2023/07/20 07:13:31;;;;;;;2.10;1.90;;;16.20;99.90;;;;;;5000578;28;20484;-58
2023/07/20 07:15:59;;;;;;;2.27;2.03;;;16.10;99.90;;;;;;5000861;28;21029;-59
2023/07/20 07:18:27;;;;;;;2.30;2.10;;;16.00;99.90;;;;;;4999183;28;20468;-60
2023/07/20 07:20:55;;;;;;;3.07;2.10;;;16.00;99.90;;;;;;4995476;28;20500;-61
2023/07/20 07:23:23;;;;;;;6.73;2.23;;;16.00;99.90;;;;;;4997027;28;20475;-59
2023/07/20 07:25:51;;;;;;;2.73;1.63;;;16.20;99.90;;;;;;4997912;28;20941;-59
2023/07/20 07:28:19;;;;;;;2.93;1.77;;;16.30;99.90;;;;;;5000181;28;20557;-58
2023/07/20 07:30:49;;;;;;;2.60;2.10;;;16.50;99.90;;;;;;5000448;28;20488;-60
2023/07/20 07:33:17;;;;;;;2.07;1.87;;;16.60;99.90;;;;;;5001888;28;20888;-58
2023/07/20 07:35:45;;;;;;;2.20;1.60;;;16.70;99.90;;;;;;5002296;28;20604;-57
2023/07/20 07:38:13;;;;;;;5.10;1.97;;;16.70;99.90;;;;;;5001486;28;20473;-59
2023/07/20 07:40:46;;;;;;;3.80;1.93;;;16.70;99.90;;;;;;4996163;28;20476;-60
2023/07/20 07:43:14;;;;;;;2.20;2.00;;;16.60;99.90;;;;;;4997797;28;20477;-58
2023/07/20 07:45:42;;;;;;;2.30;2.10;;;16.50;99.90;;;;;;5000679;28;20488;-59
2023/07/20 07:48:12;;;;;;;2.43;2.23;;;16.40;99.90;;;;;;4998267;28;20549;-59
2023/07/20 07:50:40;;;;;;;3.67;2.03;;;16.20;99.90;;;;;;4994524;28;20618;-59
2023/07/20 07:53:09;;;;;;;3.57;1.83;;;16.20;99.90;;;;;;4998281;28;20523;-59
2023/07/20 07:55:37;;;;;;;2.10;1.90;;;16.30;99.90;;;;;;4999101;28;20500;-59
2023/07/20 07:58:05;;;;;;;4.70;2.60;;;16.30;99.90;;;;;;4995293;28;20475;-58
2023/07/20 08:00:33;;;;;;;5.10;2.87;;;16.50;99.90;;;;;;4994756;28;20471;-58
2023/07/20 08:03:01;;;;;;;4.97;2.80;;;16.70;99.90;;;;;;5000234;28;20568;-58
2023/07/20 08:05:31;;;;;;;3.00;2.80;;;16.80;99.90;;;;;;4998535;28;20503;-60
2023/07/20 08:07:59;;;;;;;5.50;2.70;;;16.80;99.90;;;;;;4999162;28;20473;-58
2023/07/20 08:10:27;;;;;;;3.57;2.40;;;16.80;99.90;;;;;;4997125;28;20576;-60
2023/07/20 08:12:55;;;;;;;4.87;2.50;;;16.70;99.90;;;;;;4997815;28;20511;-58
2023/07/20 08:15:23;;;;;;;2.87;2.67;;;16.70;99.90;;;;;;4995549;28;20495;-58
2023/07/20 08:17:52;;;;;;;4.40;2.40;;;16.70;99.90;;;;;;4999810;28;20504;-57
2023/07/20 08:20:26;;;;;;;2.80;2.37;;;16.80;99.90;;;;;;4993473;28;20476;-58
2023/07/20 08:22:55;;;;;;;2.70;2.30;;;16.90;99.90;;;;;;4997760;28;20571;-59
2023/07/20 08:25:23;;;;;;;5.63;2.30;;;17.00;99.90;;;;;;4999404;28;20508;-59
2023/07/20 08:27:51;;;;;;;3.70;2.40;;;17.10;99.90;;;;;;4998004;28;20464;-58
2023/07/20 08:30:23;;;;;;;3.00;2.30;;;17.30;99.90;;;;;;4994877;28;20591;-59
2023/07/20 08:32:51;;;;;;;3.03;2.10;;;17.40;99.90;;;;;;4995973;28;20871;-58
2023/07/20 08:35:19;;;;;;;3.07;2.37;;;17.40;99.90;;;;;;4996118;28;20485;-59
2023/07/20 08:37:50;;;;;;;6.50;2.27;;;17.50;99.90;;;;;;4999631;28;20477;-58
2023/07/20 08:40:19;;;;;;;4.77;2.30;;;17.70;99.90;;;;;;4999539;28;20469;-60
2023/07/20 08:42:47;;;;;;;4.83;2.47;;;17.80;99.90;;;;;;4991727;28;20491;-63
2023/07/20 08:45:18;;;;;;;3.87;2.07;;;17.80;99.90;;;;;;4998797;28;20975;-58
2023/07/20 08:47:49;;;;;;;5.53;2.40;;;17.90;99.90;;;;;;4996697;28;20503;-57
2023/07/20 08:50:18;;;;;;;2.97;2.03;;;17.90;99.90;;;;;;4998066;28;20510;-59
2023/07/20 08:52:46;;;;;;;7.30;2.90;;;17.90;99.90;;;;;;4992510;28;20489;-60
2023/07/20 08:55:14;;;;;;;3.37;2.37;;;17.90;99.90;;;;;;4997780;28;21118;-59
2023/07/20 08:57:47;;;;;;;3.53;2.03;;;17.90;99.90;;;;;;4998209;28;20555;-59
2023/07/20 09:00:15;;;;;;;3.07;2.53;;;17.90;99.90;;;;;;4999234;28;20829;-58
2023/07/20 09:02:46;;;;;;;2.77;2.17;;;17.90;99.90;;;;;;4998392;28;20531;-58
2023/07/20 09:05:15;;;;;;;3.77;2.40;;;17.70;99.90;;;;;;4993593;28;20496;-57
2023/07/20 09:07:43;;;;;;;4.00;2.40;;;17.70;99.90;;;;;;4995098;28;20504;-60
2023/07/20 09:10:12;;;;;;;2.90;2.50;;;17.90;99.90;;;;;;4997111;28;20514;-57
2023/07/20 09:12:44;;;;;;;3.70;2.40;;;17.80;99.90;;;;;;4997999;28;20492;-60
2023/07/20 09:15:13;;;;;;;3.27;2.40;;;17.80;99.90;;;;;;5000030;28;21763;-59
2023/07/20 09:17:46;;;;;;;4.83;2.30;;;18.00;99.90;;;;;;4995860;28;20560;-59
2023/07/20 09:20:16;;;;;;;4.53;2.50;;;18.10;99.90;;;;;;4999090;28;20833;-60
2023/07/20 09:22:49;;;;;;;3.83;2.30;;;18.20;99.90;;;;;;4997373;28;21214;-59
2023/07/20 09:25:19;;;;;;;3.37;2.00;;;18.20;99.90;;;;;;4998744;28;20503;-59
2023/07/20 09:27:51;;;;;;;2.30;1.30;;;18.30;99.90;;;;;;4999021;28;20468;-59
2023/07/20 09:30:20;;;;;;;2.00;1.60;;;18.10;99.90;;;;;;4993571;28;20487;-58
2023/07/20 09:32:50;;;;;;;3.60;1.60;;;17.90;99.90;;;;;;4998966;28;20511;-58
2023/07/20 09:35:23;;;;;;;3.13;1.80;;;17.70;99.90;;;;;;4994373;28;20503;-60
2023/07/20 09:38:02;;;;;;;2.10;1.43;;;17.60;99.90;;;;;;4991137;28;20476;-58
2023/07/20 09:40:39;;;;;;;2.10;1.53;;;17.40;99.90;;;;;;4991246;28;20468;-58
2023/07/20 09:43:11;;;;;;;2.57;1.50;;;17.30;99.90;;;;;;4994036;28;20490;-59
2023/07/20 09:45:43;;;;;;;1.90;1.27;;;17.40;99.90;;;;;;4995952;28;20484;-58
2023/07/20 09:48:14;;;;;;;4.37;1.70;;;17.60;99.90;;;;;;4999042;28;20465;-60
2023/07/20 09:50:51;;;;;;;2.70;1.20;;;17.60;99.90;;;;;;4997604;28;20469;-57
2023/07/20 09:53:20;;;;;;;1.67;1.20;;;17.70;99.90;;;;;;4993021;28;20480;-58
2023/07/20 09:55:49;;;;;;;3.07;1.00;;;17.80;99.90;;;;;;4995519;28;20544;-58
2023/07/20 09:58:19;;;;;;;3.70;1.43;;;17.80;99.90;;;;;;4992183;28;20509;-59
2023/07/20 10:00:51;;;;;;;3.30;1.20;;;17.70;99.90;;;;;;4991953;28;20481;-58
2023/07/20 10:03:22;;;;;;;1.20;1.10;;;17.60;99.90;;;;;;4998726;28;20477;-59
2023/07/20 10:05:55;;;;;;;3.50;2.20;;;17.60;99.90;;;;;;4999622;28;20491;-58
2023/07/20 10:08:26;;;;;;;1.77;0.90;;;17.70;99.90;;;;;;4996218;28;20563;-58
2023/07/20 10:11:00;;;;;;;1.40;1.30;;;17.90;99.90;;;;;;4992983;28;20498;-58
2023/07/20 10:13:31;;;;;;;2.37;1.30;;;18.00;99.90;;;;;;4994112;28;20584;-59
2023/07/20 10:16:04;;;;;;;1.97;1.20;;;18.10;99.90;;;;;;4996412;28;20473;-57
2023/07/20 10:18:40;;;;;;;1.63;1.10;;;18.30;99.90;;;;;;4996869;28;20543;-58
2023/07/20 10:21:10;;;;;;;2.83;1.07;;;18.40;99.90;;;;;;4996623;28;20583;-59
2023/07/20 10:23:41;;;;;;;2.30;1.20;;;18.40;99.90;;;;;;4999793;28;20460;-58
2023/07/20 10:26:10;;;;;;;2.10;1.00;;;18.30;99.90;;;;;;4996831;28;20469;-59
2023/07/20 10:28:40;;;;;;;2.73;1.03;;;18.40;99.90;;;;;;4995795;28;20575;-59
2023/07/20 10:31:10;;;;;;;2.43;1.00;;;18.40;99.90;;;;;;4993932;28;20476;-58
2023/07/20 10:33:39;;;;;;;1.30;1.20;;;18.40;99.90;;;;;;4999515;28;20479;-59
2023/07/20 10:36:07;;;;;;;3.27;1.17;;;18.50;99.90;;;;;;4998748;28;21039;-56
2023/07/20 10:38:42;;;;;;;0.97;0.90;;;18.50;99.90;;;;;;4997410;28;20857;-58
2023/07/20 10:41:21;;;;;;;1.43;0.90;;;18.40;99.90;;;;;;4994996;28;20576;-59
2023/07/20 10:43:51;;;;;;;1.57;0.90;;;18.40;99.90;;;;;;4996105;28;20477;-59
2023/07/20 10:46:44;;;;;;;2.37;0.93;;;18.40;99.90;;;;;;4996558;28;20514;-59
2023/07/20 10:49:14;;;;;;;4.67;0.90;;;18.40;99.90;;;;;;4998689;28;20484;-59
2023/07/20 10:51:44;;;;;;;2.63;1.07;;;18.60;99.90;;;;;;4992997;28;20496;-58
2023/07/20 10:54:48;;;;;;;1.63;0.90;;;18.70;99.90;;;;;;4998333;28;20489;-58
2023/07/20 10:57:30;;;;;;;1.40;1.03;;;18.70;99.90;;;;;;4993537;28;20506;-58
2023/07/20 11:00:23;;;;;;;2.67;0.97;;;18.60;99.90;;;;;;4991936;28;21015;-59
2023/07/20 11:02:51;;;;;;;1.10;1.00;;;18.60;99.90;;;;;;4992820;28;20572;-58
2023/07/20 11:05:39;;;;;;;2.27;1.40;;;18.60;99.90;;;;;;4988268;28;20597;-58
2023/07/20 11:08:11;;;;;;;3.93;1.33;;;18.80;99.90;;;;;;4995371;28;20481;-59
2023/07/20 11:10:40;;;;;;;2.53;1.20;;;19.00;99.90;;;;;;4992527;28;20809;-57
2023/07/20 11:13:18;;;;;;;2.50;1.20;;;19.10;99.90;;;;;;4993882;28;20521;-57
2023/07/20 11:15:49;;;;;;;2.17;0.90;;;19.10;99.90;;;;;;4995402;28;21538;-56
2023/07/20 11:18:17;;;;;;;3.33;1.00;;;19.10;99.90;;;;;;4998125;28;20479;-58
2023/07/20 11:20:51;;;;;;;2.10;1.23;;;19.10;99.90;;;;;;4996521;28;20480;-58
2023/07/20 11:23:21;;;;;;;1.90;0.90;;;19.10;99.90;;;;;;4994610;28;20486;-58
2023/07/20 11:25:50;;;;;;;2.47;1.23;;;19.30;99.90;;;;;;4988957;28;20492;-59
2023/07/20 11:28:18;;;;;;;2.40;1.10;;;19.50;99.90;;;;;;4993060;28;20559;-59
2023/07/20 11:30:54;;;;;;;1.77;1.00;;;19.70;99.90;;;;;;4988685;28;20556;-58
2023/07/20 11:33:23;;;;;;;1.63;1.10;;;19.80;99.90;;;;;;4991861;28;20493;-59
2023/07/20 11:35:52;;;;;;;1.63;0.70;;;19.90;99.90;;;;;;4994789;28;20550;-60
2023/07/20 11:38:20;;;;;;;1.90;0.97;;;20.10;99.90;;;;;;4999161;28;21015;-59
2023/07/20 11:40:48;;;;;;;1.33;0.60;;;20.30;99.90;;;;;;4989255;28;21116;-57
2023/07/20 11:43:16;;;;;;;1.97;0.80;;;20.40;99.90;;;;;;5000420;28;20473;-58
2023/07/20 11:45:49;;;;;;;1.03;0.80;;;20.50;99.90;;;;;;4999142;28;20499;-58
2023/07/20 11:48:17;;;;;;;2.53;0.93;;;20.50;99.90;;;;;;5001657;28;20509;-62
2023/07/20 11:50:45;;;;;;;0.90;0.70;;;20.50;99.90;;;;;;4995347;28;20480;-61
2023/07/20 11:53:14;;;;;;;2.10;0.97;;;20.50;99.90;;;;;;5000961;28;21017;-61
2023/07/20 11:55:43;;;;;;;1.90;1.03;;;20.50;99.90;;;;;;4994262;28;20527;-62
2023/07/20 11:58:11;;;;;;;0.90;0.70;;;20.50;99.90;;;;;;4998289;28;20535;-61
2023/07/20 12:00:40;;;;;;;1.37;0.90;;;20.50;99.90;;;;;;4998217;28;20475;-61
2023/07/20 12:03:11;;;;;;;4.77;1.33;;;20.60;99.90;;;;;;5000774;28;20574;-64
2023/07/20 12:05:39;;;;;;;2.17;0.87;;;20.80;99.90;;;;;;5000979;28;21008;-63
2023/07/20 12:08:27;;;;;;;0.90;0.80;;;20.90;99.90;;;;;;4999603;28;20469;-62
2023/07/20 12:10:55;;;;;;;3.20;1.00;;;21.10;99.90;;;;;;4996336;28;20495;-62
2023/07/20 12:13:25;;;;;;;2.20;1.00;;;21.10;99.90;;;;;;4998233;28;21083;-63
2023/07/20 12:15:54;;;;;;;2.40;0.90;;;21.10;99.90;;;;;;4999729;28;20571;-63
2023/07/20 12:18:36;;;;;;;1.27;1.00;;;20.90;99.90;;;;;;4997421;28;20854;-64
2023/07/20 12:21:04;;;;;;;1.33;1.10;;;20.80;99.90;;;;;;4998301;28;20484;-63
2023/07/20 12:23:37;;;;;;;2.27;1.30;;;20.60;99.90;;;;;;4997719;28;20946;-63
2023/07/20 12:26:08;;;;;;;3.03;1.37;;;20.30;99.90;;;;;;4995747;28;20839;-62
2023/07/20 12:28:41;;;;;;;2.50;1.20;;;20.10;99.90;;;;;;4987298;28;20468;-60
2023/07/20 12:31:10;;;;;;;3.70;1.20;;;20.00;99.90;;;;;;4999514;28;20571;-64
2023/07/20 12:33:40;;;;;;;3.00;1.23;;;19.80;99.90;;;;;;4997006;28;20489;-62
2023/07/20 12:36:08;;;;;;;1.80;1.10;;;19.60;99.90;;;;;;4998718;28;20504;-62
2023/07/20 12:38:36;;;;;;;4.27;1.40;;;19.50;99.90;;;;;;4995237;28;20854;-64
2023/07/20 12:41:04;;;;;;;2.37;1.30;;;19.60;99.90;;;;;;4993651;28;20521;-64
2023/07/20 12:43:32;;;;;;;2.47;1.30;;;19.60;99.90;;;;;;4997150;28;20560;-63
2023/07/20 12:46:01;;;;;;;2.83;1.17;;;19.60;99.90;;;;;;5000125;28;20531;-62
2023/07/20 12:48:29;;;;;;;2.00;1.20;;;19.60;99.90;;;;;;4997755;28;20990;-62
2023/07/20 12:50:58;;;;;;;2.17;0.90;;;19.70;99.90;;;;;;4993587;28;20534;-64
2023/07/20 12:53:27;;;;;;;2.40;1.10;;;19.80;99.90;;;;;;4996386;28;20595;-64
2023/07/20 12:55:55;;;;;;;1.87;1.20;;;19.90;99.90;;;;;;4990990;28;20500;-64
2023/07/20 12:58:23;;;;;;;1.37;1.10;;;20.00;99.90;;;;;;4999078;28;20506;-64
2023/07/20 13:00:51;;;;;;;3.73;1.50;;;20.10;99.90;;;;;;4999980;28;20588;-61